Time;durP1;ratioP1;P1;durP2;ratioP2;P2;SDS_P1;SDS_P2;PMS_P1;PMS_P2;Temp;Humidity;BMP_temperature;BMP_pressure;BME280_temperature;BME280_humidity;BME280_pressure;Samples;Min_cycle;Max_cycle;Signal;HPM_P1;HPM_P2
2023/01/14 00:00:40;;;;;;;;;;;;;;;;;;8356634;28;28211;-81
2023/01/14 00:04:40;;;;;;;;;;;;;;;;;;8339986;28;28662;-80
2023/01/14 00:08:40;;;;;;;;;;;;;;;;;;8341121;28;28740;-80
2023/01/14 00:12:40;;;;;;;;;;;;;;;;;;8348375;28;27583;-80
2023/01/14 00:16:40;;;;;;;;;;;;;;;;;;8334071;28;28796;-81
2023/01/14 00:20:40;;;;;;;;;;;;;;;;;;8341081;28;29697;-81
2023/01/14 00:24:40;;;;;;;;;;;;;;;;;;8337382;28;28763;-81
2023/01/14 00:28:40;;;;;;;;;;;;;;;;;;8346647;28;28968;-81
2023/01/14 00:32:40;;;;;;;;;;;;;;;;;;8353913;28;27544;-80
2023/01/14 00:36:41;;;;;;;;;;;;;;;;;;8352011;28;27183;-80
2023/01/14 00:40:41;;;;;;;;;;;;;;;;;;8355046;28;27617;-81
2023/01/14 00:44:41;;;;;;;;;;;;;;;;;;8358096;28;27399;-80
2023/01/14 00:48:41;;;;;;;;;;;;;;;;;;8336973;28;28489;-80
2023/01/14 00:52:41;;;;;;;;;;;;;;;;;;8365207;28;28369;-81
2023/01/14 00:56:41;;;;;;;;;;;;;;;;;;8336943;28;28800;-80
2023/01/14 01:00:41;;;;;;;;;;;;;;;;;;8344570;28;28547;-79
2023/01/14 01:04:41;;;;;;;;;;;;;;;;;;8344000;28;28779;-80
2023/01/14 01:08:41;;;;;;;;;;;;;;;;;;8345346;28;28758;-80
2023/01/14 01:12:41;;;;;;;;;;;;;;;;;;8344782;28;28505;-80
2023/01/14 01:16:42;;;;;;;;;;;;;;;;;;8357184;28;28192;-80
2023/01/14 01:20:45;;;;;;;;;;;;;;;;;;8362247;28;27156;-80
2023/01/14 01:24:45;;;;;;;;;;;;;;;;;;8358961;28;28527;-81
2023/01/14 01:28:45;;;;;;;;;;;;;;;;;;8337967;28;28777;-82
2023/01/14 01:32:45;;;;;;;;;;;;;;;;;;8343035;28;28538;-81
2023/01/14 01:36:45;;;;;;;;;;;;;;;;;;8356425;28;27630;-80
2023/01/14 01:40:45;;;;;;;;;;;;;;;;;;8344437;28;28689;-80
2023/01/14 01:44:45;;;;;;;;;;;;;;;;;;8344235;28;28813;-79
2023/01/14 01:48:45;;;;;;;;;;;;;;;;;;8355525;28;27344;-81
2023/01/14 01:52:46;;;;;;;;;;;;;;;;;;8344923;28;28789;-81
2023/01/14 01:56:46;;;;;;;;;;;;;;;;;;8346858;28;28796;-81
2023/01/14 02:00:46;;;;;;;;;;;;;;;;;;8367464;28;28281;-81
2023/01/14 02:04:46;;;;;;;;;;;;;;;;;;8343997;28;28541;-81
2023/01/14 02:08:46;;;;;;;;;;;;;;;;;;8334873;28;28529;-81
2023/01/14 02:12:46;;;;;;;;;;;;;;;;;;8354587;28;27972;-81
2023/01/14 02:16:46;;;;;;;;;;;;;;;;;;8350553;28;29274;-80
2023/01/14 02:20:46;;;;;;;;;;;;;;;;;;8350301;28;28581;-80
2023/01/14 02:24:46;;;;;;;;;;;;;;;;;;8353890;28;27284;-81
2023/01/14 02:28:46;;;;;;;;;;;;;;;;;;8352785;28;28825;-81
2023/01/14 02:32:46;;;;;;;;;;;;;;;;;;8338017;28;28548;-81
2023/01/14 02:36:47;;;;;;;;;;;;;;;;;;8357498;28;28737;-80
2023/01/14 02:40:47;;;;;;;;;;;;;;;;;;8356433;28;27932;-81
2023/01/14 02:44:47;;;;;;;;;;;;;;;;;;8357931;28;28345;-81
2023/01/14 02:48:47;;;;;;;;;;;;;;;;;;8346126;28;28447;-81
2023/01/14 02:52:47;;;;;;;;;;;;;;;;;;8339671;28;28680;-81
2023/01/14 02:56:47;;;;;;;;;;;;;;;;;;8339898;28;27555;-80
2023/01/14 03:00:47;;;;;;;;;;;;;;;;;;8342435;28;29806;-80
2023/01/14 03:04:47;;;;;;;;;;;;;;;;;;8341468;28;28897;-80
2023/01/14 03:08:47;;;;;;;;;;;;;;;;;;8342401;28;28556;-81
2023/01/14 03:12:48;;;;;;;;;;;;;;;;;;8343387;28;28890;-81
2023/01/14 03:16:48;;;;;;;;;;;;;;;;;;8340118;28;28505;-81
2023/01/14 03:20:48;;;;;;;;;;;;;;;;;;8342048;28;28197;-81
2023/01/14 03:24:48;;;;;;;;;;;;;;;;;;8359388;28;28171;-80
2023/01/14 03:28:49;;;;;;;;;;;;;;;;;;8334132;28;28787;-80
2023/01/14 03:32:50;;;;;;;;;;;;;;;;;;8357648;28;27917;-80
2023/01/14 03:36:50;;;;;;;;;;;;;;;;;;8352321;28;27516;-79
2023/01/14 03:40:50;;;;;;;;;;;;;;;;;;8346073;28;28829;-80
2023/01/14 03:44:50;;;;;;;;;;;;;;;;;;8341470;28;28165;-80
2023/01/14 03:48:50;;;;;;;;;;;;;;;;;;8338106;28;28923;-78
2023/01/14 03:52:50;;;;;;;;;;;;;;;;;;8343348;28;29108;-81
2023/01/14 03:56:51;;;;;;;;;;;;;;;;;;8342142;28;28194;-80
2023/01/14 04:00:51;;;;;;;;;;;;;;;;;;8335693;28;28433;-81
2023/01/14 04:04:51;;;;;;;;;;;;;;;;;;8338482;28;28696;-80
2023/01/14 04:08:51;;;;;;;;;;;;;;;;;;8357326;28;27973;-80
2023/01/14 04:17:10;;;;;;;;;;;;;;;;;;8350900;28;27644;-81
2023/01/14 04:21:10;;;;;;;;;;;;;;;;;;8345412;28;27843;-80
2023/01/14 04:25:10;;;;;;;;;;;;;;;;;;8341240;28;27239;-81
2023/01/14 04:29:10;;;;;;;;;;;;;;;;;;8359043;28;28239;-78
2023/01/14 04:33:11;;;;;;;;;;;;;;;;;;8342289;28;28357;-79
2023/01/14 04:37:11;;;;;;;;;;;;;;;;;;8361033;28;28017;-81
2023/01/14 04:42:26;;;;;;;;;;;;;;;;;;8349775;28;28320;-80
2023/01/14 04:45:31;;;;;;;;;;;;;;;;;;8360261;28;27674;-80
2023/01/14 04:49:31;;;;;;;;;;;;;;;;;;8343665;28;28491;-81
2023/01/14 04:53:31;;;;;;;;;;;;;;;;;;8361902;28;27473;-80
2023/01/14 04:57:31;;;;;;;;;;;;;;;;;;8346511;28;28553;-80
2023/01/14 05:01:31;;;;;;;;;;;;;;;;;;8359351;28;28036;-81
2023/01/14 05:05:31;;;;;;;;;;;;;;;;;;8349524;28;27430;-81
2023/01/14 05:09:31;;;;;;;;;;;;;;;;;;8350755;28;29025;-79
2023/01/14 05:13:32;;;;;;;;;;;;;;;;;;8342282;28;28276;-80
2023/01/14 05:17:32;;;;;;;;;;;;;;;;;;8340535;28;28513;-80
2023/01/14 05:21:32;;;;;;;;;;;;;;;;;;8353574;28;27336;-81
2023/01/14 05:25:32;;;;;;;;;;;;;;;;;;8360722;28;27408;-81
2023/01/14 05:29:32;;;;;;;;;;;;;;;;;;8342865;28;28818;-81
2023/01/14 05:33:32;;;;;;;;;;;;;;;;;;8353274;28;28105;-81
2023/01/14 05:37:32;;;;;;;;;;;;;;;;;;8363596;28;27127;-81
2023/01/14 05:41:33;;;;;;;;;;;;;;;;;;8341253;28;28488;-81
2023/01/14 05:45:41;;;;;;;;;;;;;;;;;;8338860;28;28206;-80
2023/01/14 05:49:41;;;;;;;;;;;;;;;;;;8341977;28;27790;-80
2023/01/14 05:53:41;;;;;;;;;;;;;;;;;;8338280;28;28444;-80
2023/01/14 05:57:41;;;;;;;;;;;;;;;;;;8342155;28;28800;-81
2023/01/14 06:10:19;;;;;;;;;;;;;;;;;;8356123;28;27336;-81
2023/01/14 06:14:19;;;;;;;;;;;;;;;;;;8337267;28;28209;-81
2023/01/14 06:18:23;;;;;;;;;;;;;;;;;;8358570;28;27349;-80
2023/01/14 06:22:23;;;;;;;;;;;;;;;;;;8359230;28;27077;-80
2023/01/14 06:26:29;;;;;;;;;;;;;;;;;;8340318;28;27263;-77
2023/01/14 06:30:29;;;;;;;;;;;;;;;;;;8340531;28;28745;-80
2023/01/14 06:34:29;;;;;;;;;;;;;;;;;;8350924;28;28515;-81
2023/01/14 06:38:29;;;;;;;;;;;;;;;;;;8355001;28;27387;-81
2023/01/14 06:42:29;;;;;;;;;;;;;;;;;;8356109;28;27237;-81
2023/01/14 06:46:30;;;;;;;;;;;;;;;;;;8340171;28;27156;-81
2023/01/14 06:50:30;;;;;;;;;;;;;;;;;;8336190;28;28608;-81
2023/01/14 06:54:30;;;;;;;;;;;;;;;;;;8336218;28;29154;-81
2023/01/14 06:58:30;;;;;;;;;;;;;;;;;;8357562;28;27094;-80
2023/01/14 07:02:30;;;;;;;;;;;;;;;;;;8359344;28;28065;-81
2023/01/14 07:06:30;;;;;;;;;;;;;;;;;;8336086;28;28672;-81
2023/01/14 07:10:30;;;;;;;;;;;;;;;;;;8335716;28;27435;-80
2023/01/14 07:14:30;;;;;;;;;;;;;;;;;;8347759;28;28839;-80
2023/01/14 07:18:30;;;;;;;;;;;;;;;;;;8360005;28;28313;-80
2023/01/14 07:22:30;;;;;;;;;;;;;;;;;;8357253;28;27280;-79
2023/01/14 07:26:31;;;;;;;;;;;;;;;;;;8341245;28;27208;-81
2023/01/14 07:30:31;;;;;;;;;;;;;;;;;;8355440;28;27330;-83
2023/01/14 07:34:31;;;;;;;;;;;;;;;;;;8334878;28;28291;-80
2023/01/14 07:38:31;;;;;;;;;;;;;;;;;;8341353;28;28818;-80
2023/01/14 07:42:31;;;;;;;;;;;;;;;;;;8336705;28;30188;-82
2023/01/14 07:46:32;;;;;;;;;;;;;;;;;;8333226;28;28990;-80
2023/01/14 07:50:32;;;;;;;;;;;;;;;;;;8340131;28;27192;-81
2023/01/14 07:54:32;;;;;;;;;;;;;;;;;;8355044;28;27611;-80
2023/01/14 07:58:32;;;;;;;;;;;;;;;;;;8342001;28;28593;-82
2023/01/14 08:02:34;;;;;;;;;;;;;;;;;;8347061;28;28590;-82
2023/01/14 08:06:34;;;;;;;;;;;;;;;;;;8348385;28;29281;-80
2023/01/14 08:10:34;;;;;;;;;;;;;;;;;;8358262;28;27724;-81
2023/01/14 08:14:34;;;;;;;;;;;;;;;;;;8338149;28;28440;-81
2023/01/14 08:18:35;;;;;;;;;;;;;;;;;;8343733;28;28878;-81
2023/01/14 08:22:35;;;;;;;;;;;;;;;;;;8341034;28;27431;-81
2023/01/14 08:26:35;;;;;;;;;;;;;;;;;;8345140;28;28854;-81
2023/01/14 08:30:35;;;;;;;;;;;;;;;;;;8337067;28;28453;-81
2023/01/14 08:34:35;;;;;;;;;;;;;;;;;;8347851;28;28663;-81
2023/01/14 08:38:35;;;;;;;;;;;;;;;;;;8359284;28;27341;-80
2023/01/14 08:42:35;;;;;;;;;;;;;;;;;;8355351;28;27634;-80
2023/01/14 08:46:35;;;;;;;;;;;;;;;;;;8336096;28;27194;-81
2023/01/14 08:50:35;;;;;;;;;;;;;;;;;;8358320;28;27235;-81
2023/01/14 08:54:35;;;;;;;;;;;;;;;;;;8348373;28;27127;-81
2023/01/14 08:58:35;;;;;;;;;;;;;;;;;;8347100;28;28766;-81
2023/01/14 09:02:36;;;;;;;;;;;;;;;;;;8341135;28;28763;-80
2023/01/14 09:17:04;;;;;;;;;;;;;;;;;;8346421;28;28151;-80
2023/01/14 09:19:34;;;;;;;;;;;;;;;;;;8365245;28;27353;-79
2023/01/14 09:23:34;;;;;;;;;;;;;;;;;;8334638;28;29921;-80
2023/01/14 09:27:34;;;;;;;;;;;;;;;;;;8336075;28;28670;-80
2023/01/14 09:31:34;;;;;;;;;;;;;;;;;;8331429;28;28889;-79
2023/01/14 09:35:34;;;;;;;;;;;;;;;;;;8339819;28;29473;-80
2023/01/14 09:39:34;;;;;;;;;;;;;;;;;;8338009;28;28784;-80
2023/01/14 09:43:34;;;;;;;;;;;;;;;;;;8354312;28;27490;-81
2023/01/14 09:47:34;;;;;;;;;;;;;;;;;;8333112;28;28505;-80
2023/01/14 09:51:34;;;;;;;;;;;;;;;;;;8330451;28;28676;-81
2023/01/14 09:55:35;;;;;;;;;;;;;;;;;;8332236;28;29035;-81
2023/01/14 09:59:35;;;;;;;;;;;;;;;;;;8343546;28;28391;-80
2023/01/14 10:03:35;;;;;;;;;;;;;;;;;;8331567;28;27157;-81
2023/01/14 10:07:35;;;;;;;;;;;;;;;;;;8350809;28;27609;-81
2023/01/14 10:11:37;;;;;;;;;;;;;;;;;;8349084;28;27226;-80
2023/01/14 10:15:37;;;;;;;;;;;;;;;;;;8344484;28;27213;-80
2023/01/14 10:19:37;;;;;;;;;;;;;;;;;;8335609;28;28372;-80
2023/01/14 10:23:39;;;;;;;;;;;;;;;;;;8359144;28;27198;-79
2023/01/14 10:27:39;;;;;;;;;;;;;;;;;;8336799;28;28765;-81
2023/01/14 10:31:40;;;;;;;;;;;;;;;;;;8338306;28;28659;-83
2023/01/14 10:35:40;;;;;;;;;;;;;;;;;;8358862;28;28440;-84
2023/01/14 10:39:40;;;;;;;;;;;;;;;;;;8354431;28;27704;-85
2023/01/14 10:43:42;;;;;;;;;;;;;;;;;;8337034;28;28852;-83
2023/01/14 10:47:42;;;;;;;;;;;;;;;;;;8335552;28;28623;-84
2023/01/14 10:51:47;;;;;;;;;;;;;;;;;;8349973;28;27099;-82
2023/01/14 10:55:47;;;;;;;;;;;;;;;;;;8341413;28;29811;-86
2023/01/14 10:59:48;;;;;;;;;;;;;;;;;;8336570;28;28338;-85
2023/01/14 11:03:48;;;;;;;;;;;;;;;;;;8350791;28;27296;-86
2023/01/14 11:07:50;;;;;;;;;;;;;;;;;;8331486;28;28064;-86
2023/01/14 11:11:50;;;;;;;;;;;;;;;;;;8332344;28;28725;-84
2023/01/14 11:15:50;;;;;;;;;;;;;;;;;;8337454;28;29390;-85
2023/01/14 11:19:50;;;;;;;;;;;;;;;;;;8336095;28;28455;-86
2023/01/14 11:23:50;;;;;;;;;;;;;;;;;;8338824;28;28634;-86
2023/01/14 11:27:50;;;;;;;;;;;;;;;;;;8339160;28;28183;-86
2023/01/14 11:31:51;;;;;;;;;;;;;;;;;;8335714;28;28653;-84
2023/01/14 11:35:51;;;;;;;;;;;;;;;;;;8339383;28;28511;-89
2023/01/14 11:39:51;;;;;;;;;;;;;;;;;;8331110;28;29401;-87
2023/01/14 11:43:52;;;;;;;;;;;;;;;;;;8350305;28;28544;-87
2023/01/14 11:47:52;;;;;;;;;;;;;;;;;;8334608;28;28637;-85
2023/01/14 11:51:52;;;;;;;;;;;;;;;;;;8342642;28;28644;-83
2023/01/14 11:55:55;;;;;;;;;;;;;;;;;;8342245;28;28887;-85
2023/01/14 11:59:55;;;;;;;;;;;;;;;;;;8342084;28;29114;-85
2023/01/14 12:03:55;;;;;;;;;;;;;;;;;;8330315;28;28895;-85
2023/01/14 12:07:55;;;;;;;;;;;;;;;;;;8336595;28;28503;-87
2023/01/14 12:11:55;;;;;;;;;;;;;;;;;;8345703;28;28564;-85
2023/01/14 12:20:14;;;;;;;;;;;;;;;;;;8353620;28;27349;-86
2023/01/14 12:24:14;;;;;;;;;;;;;;;;;;8338781;28;27088;-85
2023/01/14 12:28:14;;;;;;;;;;;;;;;;;;8339190;28;28622;-87
2023/01/14 12:32:14;;;;;;;;;;;;;;;;;;8344852;28;28761;-85
2023/01/14 12:36:16;;;;;;;;;;;;;;;;;;8348188;28;28475;-86
2023/01/14 12:48:54;;;;;;;;;;;;;;;;;;8355824;28;27743;-85
2023/01/14 12:52:54;;;;;;;;;;;;;;;;;;8359873;28;28760;-86
2023/01/14 12:56:54;;;;;;;;;;;;;;;;;;8359886;28;27658;-84
2023/01/14 13:00:55;;;;;;;;;;;;;;;;;;8366675;28;28107;-87
2023/01/14 13:04:55;;;;;;;;;;;;;;;;;;8367176;28;28120;-85
2023/01/14 13:08:55;;;;;;;;;;;;;;;;;;8347369;28;28899;-86
2023/01/14 13:12:55;;;;;;;;;;;;;;;;;;8368646;28;27351;-87
2023/01/14 13:16:55;;;;;;;;;;;;;;;;;;8343037;28;28793;-86
2023/01/14 13:20:55;;;;;;;;;;;;;;;;;;8344531;28;28645;-88
2023/01/14 13:24:55;;;;;;;;;;;;;;;;;;8343508;28;28533;-87
2023/01/14 13:28:55;;;;;;;;;;;;;;;;;;8351747;28;28051;-85
2023/01/14 13:32:55;;;;;;;;;;;;;;;;;;8347622;28;28550;-86
2023/01/14 13:36:55;;;;;;;;;;;;;;;;;;8353963;28;27319;-85
2023/01/14 13:41:08;;;;;;;;;;;;;;;;;;8343066;28;29204;-85
2023/01/14 13:45:08;;;;;;;;;;;;;;;;;;8341081;28;29020;-85
2023/01/14 13:49:08;;;;;;;;;;;;;;;;;;8339835;28;29736;-85
2023/01/14 13:53:08;;;;;;;;;;;;;;;;;;8342996;28;28520;-86
2023/01/14 13:57:08;;;;;;;;;;;;;;;;;;8351602;28;28477;-85
2023/01/14 14:01:08;;;;;;;;;;;;;;;;;;8345039;28;28948;-83
2023/01/14 14:05:08;;;;;;;;;;;;;;;;;;8349603;28;28971;-86
2023/01/14 14:09:08;;;;;;;;;;;;;;;;;;8353873;28;28646;-86
2023/01/14 14:17:27;;;;;;;;;;;;;;;;;;8361286;28;27537;-83
2023/01/14 14:21:28;;;;;;;;;;;;;;;;;;8354661;28;27432;-85
2023/01/14 14:25:28;;;;;;;;;;;;;;;;;;8340106;28;28953;-85
2023/01/14 14:29:28;;;;;;;;;;;;;;;;;;8329298;28;28705;-86
2023/01/14 14:33:28;;;;;;;;;;;;;;;;;;8335184;28;29784;-86
2023/01/14 14:37:33;;;;;;;;;;;;;;;;;;8334648;28;28469;-86
2023/01/14 14:41:33;;;;;;;;;;;;;;;;;;8335850;28;29049;-85
2023/01/14 14:45:34;;;;;;;;;;;;;;;;;;8348623;28;28669;-85
2023/01/14 14:49:34;;;;;;;;;;;;;;;;;;8350073;28;28590;-85
2023/01/14 14:53:34;;;;;;;;;;;;;;;;;;8352457;28;29011;-85
2023/01/14 14:57:34;;;;;;;;;;;;;;;;;;8345484;28;29087;-85
2023/01/14 15:01:34;;;;;;;;;;;;;;;;;;8363973;28;27924;-85
2023/01/14 15:05:35;;;;;;;;;;;;;;;;;;8360859;28;28579;-86
2023/01/14 15:09:35;;;;;;;;;;;;;;;;;;8363940;28;28529;-85
2023/01/14 15:13:36;;;;;;;;;;;;;;;;;;8360292;28;27410;-85
2023/01/14 15:17:36;;;;;;;;;;;;;;;;;;8347421;28;28856;-84
2023/01/14 15:21:37;;;;;;;;;;;;;;;;;;8358182;28;27311;-85
2023/01/14 15:25:37;;;;;;;;;;;;;;;;;;8362643;28;27963;-85
2023/01/14 15:29:38;;;;;;;;;;;;;;;;;;8339105;28;28969;-86
2023/01/14 15:33:38;;;;;;;;;;;;;;;;;;8367440;28;27455;-86
2023/01/14 15:37:38;;;;;;;;;;;;;;;;;;8364053;28;27050;-84
2023/01/14 15:41:38;;;;;;;;;;;;;;;;;;8367654;28;27558;-83
2023/01/14 15:45:38;;;;;;;;;;;;;;;;;;8347819;28;28542;-84
2023/01/14 15:49:38;;;;;;;;;;;;;;;;;;8338327;28;28851;-83
2023/01/14 15:53:39;;;;;;;;;;;;;;;;;;8338716;28;29796;-83
2023/01/14 15:57:39;;;;;;;;;;;;;;;;;;8336352;28;28903;-84
2023/01/14 16:01:39;;;;;;;;;;;;;;;;;;8354382;28;27371;-82
2023/01/14 16:05:39;;;;;;;;;;;;;;;;;;8352838;28;27382;-85
2023/01/14 16:09:39;;;;;;;;;;;;;;;;;;8354200;28;27478;-85
2023/01/14 16:13:39;;;;;;;;;;;;;;;;;;8354355;28;28014;-84
2023/01/14 16:17:39;;;;;;;;;;;;;;;;;;8363596;28;27884;-84
2023/01/14 16:21:39;;;;;;;;;;;;;;;;;;8352430;28;29080;-85
2023/01/14 16:25:39;;;;;;;;;;;;;;;;;;8340392;28;28597;-84
2023/01/14 16:29:39;;;;;;;;;;;;;;;;;;8343629;28;29519;-86
2023/01/14 16:33:40;;;;;;;;;;;;;;;;;;8349361;28;28878;-85
2023/01/14 16:37:40;;;;;;;;;;;;;;;;;;8358789;28;28529;-84
2023/01/14 16:41:40;;;;;;;;;;;;;;;;;;8343933;28;28276;-84
2023/01/14 16:45:40;;;;;;;;;;;;;;;;;;8334214;28;28787;-80
2023/01/14 16:49:40;;;;;;;;;;;;;;;;;;8335315;28;28578;-80
2023/01/14 16:53:40;;;;;;;;;;;;;;;;;;8338769;28;29445;-79
2023/01/14 16:57:40;;;;;;;;;;;;;;;;;;8333267;28;28756;-78
2023/01/14 17:01:40;;;;;;;;;;;;;;;;;;8338899;28;27673;-80
2023/01/14 17:05:40;;;;;;;;;;;;;;;;;;8331548;28;28757;-81
2023/01/14 17:09:41;;;;;;;;;;;;;;;;;;8338079;28;29066;-80
2023/01/14 17:13:41;;;;;;;;;;;;;;;;;;8334750;28;29780;-79
2023/01/14 17:17:41;;;;;;;;;;;;;;;;;;8333764;28;27239;-80
2023/01/14 17:21:41;;;;;;;;;;;;;;;;;;8330973;28;28677;-80
2023/01/14 17:25:41;;;;;;;;;;;;;;;;;;8338391;28;28262;-81
2023/01/14 17:29:42;;;;;;;;;;;;;;;;;;8351100;28;27578;-81
2023/01/14 17:33:42;;;;;;;;;;;;;;;;;;8337996;28;29084;-81
2023/01/14 17:37:43;;;;;;;;;;;;;;;;;;8338347;28;28536;-80
2023/01/14 17:46:02;;;;;;;;;;;;;;;;;;8351896;28;27426;-80
2023/01/14 17:50:03;;;;;;;;;;;;;;;;;;8338850;28;28437;-80
2023/01/14 17:54:03;;;;;;;;;;;;;;;;;;8344883;28;28054;-80
2023/01/14 17:58:03;;;;;;;;;;;;;;;;;;8356294;28;28074;-79
2023/01/14 18:02:03;;;;;;;;;;;;;;;;;;8334216;28;28882;-80
2023/01/14 18:06:03;;;;;;;;;;;;;;;;;;8345423;28;27869;-81
2023/01/14 18:10:04;;;;;;;;;;;;;;;;;;8345793;28;28837;-80
2023/01/14 18:14:04;;;;;;;;;;;;;;;;;;8338059;28;28812;-80
2023/01/14 18:18:04;;;;;;;;;;;;;;;;;;8347422;28;29817;-80
2023/01/14 18:22:04;;;;;;;;;;;;;;;;;;8332853;28;28669;-80
2023/01/14 18:26:09;;;;;;;;;;;;;;;;;;8341523;28;27431;-79
2023/01/14 18:30:09;;;;;;;;;;;;;;;;;;8340456;28;28933;-78
2023/01/14 18:34:09;;;;;;;;;;;;;;;;;;8358607;28;27205;-80
2023/01/14 18:38:09;;;;;;;;;;;;;;;;;;8328882;28;29718;-79
2023/01/14 18:42:09;;;;;;;;;;;;;;;;;;8337649;28;28878;-80
2023/01/14 18:46:09;;;;;;;;;;;;;;;;;;8331701;28;28793;-80
2023/01/14 18:50:10;;;;;;;;;;;;;;;;;;8352594;28;27201;-80
2023/01/14 18:54:10;;;;;;;;;;;;;;;;;;8326677;28;28222;-79
2023/01/14 18:58:10;;;;;;;;;;;;;;;;;;8340187;28;28658;-80
2023/01/14 19:02:10;;;;;;;;;;;;;;;;;;8347359;28;27337;-79
2023/01/14 19:06:13;;;;;;;;;;;;;;;;;;8341193;28;28864;-80
2023/01/14 19:10:13;;;;;;;;;;;;;;;;;;8336932;28;28778;-80
2023/01/14 19:14:15;;;;;;;;;;;;;;;;;;8332804;28;29630;-80
2023/01/14 19:18:16;;;;;;;;;;;;;;;;;;8356719;28;28538;-78
2023/01/14 19:22:17;;;;;;;;;;;;;;;;;;8338616;28;28391;-78
2023/01/14 19:26:17;;;;;;;;;;;;;;;;;;8333639;28;29467;-80
2023/01/14 19:30:17;;;;;;;;;;;;;;;;;;8340724;28;28284;-79
2023/01/14 19:34:17;;;;;;;;;;;;;;;;;;8334126;28;28565;-79
2023/01/14 19:38:18;;;;;;;;;;;;;;;;;;8336002;28;28708;-80
2023/01/14 19:42:18;;;;;;;;;;;;;;;;;;8337101;28;29717;-80
2023/01/14 19:46:18;;;;;;;;;;;;;;;;;;8342119;28;28716;-80
2023/01/14 19:50:18;;;;;;;;;;;;;;;;;;8351519;28;27652;-79
2023/01/14 19:54:18;;;;;;;;;;;;;;;;;;8355472;28;27542;-79
2023/01/14 19:58:18;;;;;;;;;;;;;;;;;;8356461;28;28550;-79
2023/01/14 20:02:18;;;;;;;;;;;;;;;;;;8333091;28;28497;-79
2023/01/14 20:06:20;;;;;;;;;;;;;;;;;;8331186;28;28699;-79
2023/01/14 20:10:20;;;;;;;;;;;;;;;;;;8355300;28;27370;-81
2023/01/14 20:14:22;;;;;;;;;;;;;;;;;;8354447;28;47602;-80
2023/01/14 20:18:22;;;;;;;;;;;;;;;;;;8340861;28;28360;-80
2023/01/14 20:22:22;;;;;;;;;;;;;;;;;;8362960;28;28245;-81
2023/01/14 20:26:22;;;;;;;;;;;;;;;;;;8333253;28;28363;-80
2023/01/14 20:30:23;;;;;;;;;;;;;;;;;;8337059;28;28945;-80
2023/01/14 20:34:23;;;;;;;;;;;;;;;;;;8362136;28;27858;-80
2023/01/14 20:38:23;;;;;;;;;;;;;;;;;;8354779;28;27325;-80
2023/01/14 20:42:23;;;;;;;;;;;;;;;;;;8359156;28;27483;-80
2023/01/14 20:46:26;;;;;;;;;;;;;;;;;;8364238;28;27298;-80
2023/01/14 20:50:26;;;;;;;;;;;;;;;;;;8348480;28;27319;-81
2023/01/14 20:54:26;;;;;;;;;;;;;;;;;;8337823;28;28578;-79
2023/01/14 21:02:30;;;;;;;;;;;;;;;;;;8356172;28;27451;-80
2023/01/14 21:06:30;;;;;;;;;;;;;;;;;;8342715;28;28511;-78
2023/01/14 21:10:30;;;;;;;;;;;;;;;;;;8354715;28;27189;-80
2023/01/14 21:23:08;;;;;;;;;;;;;;;;;;8355249;28;27742;-78
2023/01/14 21:27:08;;;;;;;;;;;;;;;;;;8363004;28;27620;-80
2023/01/14 21:31:08;;;;;;;;;;;;;;;;;;8353680;28;28417;-81
2023/01/14 21:35:08;;;;;;;;;;;;;;;;;;8361635;28;27654;-81
2023/01/14 21:39:08;;;;;;;;;;;;;;;;;;8360770;28;27974;-82
2023/01/14 21:43:26;;;;;;;;;;;;;;;;;;8354842;28;27437;-80
2023/01/14 21:47:26;;;;;;;;;;;;;;;;;;8354768;28;27167;-80
2023/01/14 21:51:27;;;;;;;;;;;;;;;;;;8356022;28;27936;-81
2023/01/14 21:55:27;;;;;;;;;;;;;;;;;;8336763;28;29537;-81
2023/01/14 21:59:27;;;;;;;;;;;;;;;;;;8364733;28;27222;-80
2023/01/14 22:03:27;;;;;;;;;;;;;;;;;;8357304;28;27978;-80
2023/01/14 22:07:27;;;;;;;;;;;;;;;;;;8341566;28;28429;-81
2023/01/14 22:11:27;;;;;;;;;;;;;;;;;;8335244;28;28570;-80
2023/01/14 22:15:28;;;;;;;;;;;;;;;;;;8354534;28;27334;-80
2023/01/14 22:19:31;;;;;;;;;;;;;;;;;;8362402;28;27338;-82
2023/01/14 22:23:31;;;;;;;;;;;;;;;;;;8348467;28;28738;-80
2023/01/14 22:27:31;;;;;;;;;;;;;;;;;;8355174;28;27336;-80
2023/01/14 22:31:31;;;;;;;;;;;;;;;;;;8342095;28;29471;-80
2023/01/14 22:35:31;;;;;;;;;;;;;;;;;;8353624;28;27288;-80
2023/01/14 22:39:31;;;;;;;;;;;;;;;;;;8364614;28;27486;-79
2023/01/14 22:43:31;;;;;;;;;;;;;;;;;;8344862;28;28554;-80
2023/01/14 22:47:31;;;;;;;;;;;;;;;;;;8341330;28;28991;-80
2023/01/14 22:51:31;;;;;;;;;;;;;;;;;;8362242;28;28146;-83
2023/01/14 22:55:31;;;;;;;;;;;;;;;;;;8337008;28;29022;-80
2023/01/14 22:59:33;;;;;;;;;;;;;;;;;;8333111;28;29696;-81
2023/01/14 23:03:33;;;;;;;;;;;;;;;;;;8353798;28;27627;-79
2023/01/14 23:07:33;;;;;;;;;;;;;;;;;;8343284;28;28734;-80
2023/01/14 23:11:33;;;;;;;;;;;;;;;;;;8350115;28;27525;-81
2023/01/14 23:19:53;;;;;;;;;;;;;;;;;;8352719;28;27532;-79
2023/01/14 23:23:53;;;;;;;;;;;;;;;;;;8336969;28;28625;-79
2023/01/14 23:27:53;;;;;;;;;;;;;;;;;;8351884;28;28035;-78
2023/01/14 23:31:53;;;;;;;;;;;;;;;;;;8350095;28;28264;-79
2023/01/14 23:35:53;;;;;;;;;;;;;;;;;;8351579;28;27017;-79
2023/01/14 23:39:53;;;;;;;;;;;;;;;;;;8351952;28;28588;-79
2023/01/14 23:43:53;;;;;;;;;;;;;;;;;;8334873;28;28574;-79
2023/01/14 23:47:53;;;;;;;;;;;;;;;;;;8341155;28;28816;-81
2023/01/14 23:51:53;;;;;;;;;;;;;;;;;;8353525;28;27398;-82
2023/01/14 23:55:54;;;;;;;;;;;;;;;;;;8357790;28;28412;-80
2023/01/14 23:59:54;;;;;;;;;;;;;;;;;;8329232;28;28555;-80
